createdAt,value
2022-08-04T00:00:46.102Z,19.89
2022-08-04T00:03:21.188Z,19.95
2022-08-04T00:06:02.409Z,19.93
2022-08-04T00:08:46.484Z,19.90
2022-08-04T00:11:22.986Z,19.88
2022-08-04T00:14:02.386Z,19.84
2022-08-04T00:16:37.886Z,19.61
2022-08-04T00:19:12.804Z,19.69
2022-08-04T00:21:48.500Z,19.77
2022-08-04T00:24:18.230Z,19.76
2022-08-04T00:26:48.845Z,19.75
2022-08-04T00:29:17.274Z,19.54
2022-08-04T00:31:55.922Z,19.72
2022-08-04T00:34:27.649Z,19.70
2022-08-04T00:36:57.433Z,19.69
2022-08-04T00:39:26.960Z,19.67
2022-08-04T00:42:19.844Z,19.64
2022-08-04T00:45:02.161Z,19.59
2022-08-04T00:47:46.850Z,19.57
2022-08-04T00:50:25.294Z,19.54
2022-08-04T00:53:08.002Z,19.49
2022-08-04T00:55:55.293Z,19.47
2022-08-04T00:58:43.995Z,18.76
2022-08-04T01:01:23.890Z,19.36
2022-08-04T01:04:03.775Z,19.35
2022-08-04T01:06:56.306Z,19.33
2022-08-04T01:09:34.506Z,19.32
2022-08-04T01:12:18.846Z,19.31
2022-08-04T01:15:04.116Z,19.03
2022-08-04T01:17:45.333Z,19.28
2022-08-04T01:20:18.708Z,18.14
2022-08-04T01:23:26.477Z,19.23
2022-08-04T01:26:43.220Z,19.21
2022-08-04T01:29:22.529Z,19.20
2022-08-04T01:32:09.469Z,19.16
2022-08-04T01:34:43.878Z,19.15
2022-08-04T01:37:25.222Z,19.15
2022-08-04T01:40:04.229Z,19.14
2022-08-04T01:42:35.087Z,18.70
2022-08-04T01:45:07.529Z,19.08
2022-08-04T01:47:38.749Z,19.05
2022-08-04T01:50:09.682Z,19.03
2022-08-04T01:52:39.662Z,18.90
2022-08-04T01:55:10.801Z,19.01
2022-08-04T01:57:43.260Z,18.90
2022-08-04T02:00:15.591Z,18.70
2022-08-04T02:02:45.703Z,18.95
2022-08-04T02:05:17.917Z,18.96
2022-08-04T02:08:00.690Z,18.95
2022-08-04T02:10:31.924Z,18.94
2022-08-04T02:13:12.989Z,18.92
2022-08-04T02:15:53.010Z,18.71
2022-08-04T02:18:25.881Z,18.85
2022-08-04T02:20:59.617Z,18.65
2022-08-04T02:23:36.785Z,18.81
2022-08-04T02:26:07.660Z,18.61
2022-08-04T02:28:49.126Z,18.78
2022-08-04T02:31:29.294Z,18.77
2022-08-04T02:34:08.657Z,18.74
2022-08-04T02:36:40.620Z,18.77
2022-08-04T02:39:10.657Z,18.76
2022-08-04T02:41:41.471Z,18.74
2022-08-04T02:44:11.805Z,18.74
2022-08-04T02:46:45.108Z,18.78
2022-08-04T02:49:14.590Z,18.84
2022-08-04T02:51:45.061Z,18.95
2022-08-04T02:54:16.944Z,18.99
2022-08-04T02:57:04.285Z,19.25
2022-08-04T02:59:55.389Z,19.37
2022-08-04T03:02:36.274Z,19.33
2022-08-04T03:05:14.909Z,19.54
2022-08-04T03:08:22.009Z,19.92
2022-08-04T03:11:10.986Z,20.07
2022-08-04T03:14:05.235Z,20.23
2022-08-04T03:17:17.804Z,20.38
2022-08-04T03:20:28.341Z,19.95
2022-08-04T03:23:29.679Z,20.63
2022-08-04T03:26:20.801Z,20.66
2022-08-04T03:29:36.171Z,20.80
2022-08-04T03:33:02.950Z,20.48
2022-08-04T03:36:10.638Z,20.88
2022-08-04T03:39:20.270Z,20.93
2022-08-04T03:42:14.278Z,20.98
2022-08-04T03:45:29.208Z,21.05
2022-08-04T03:48:39.772Z,21.10
2022-08-04T03:51:46.385Z,21.16
2022-08-04T03:54:53.395Z,21.23
2022-08-04T03:57:46.628Z,21.26
2022-08-04T04:00:17.601Z,21.16
2022-08-04T04:03:32.664Z,21.35
2022-08-04T04:06:36.541Z,21.41
2022-08-04T04:09:56.706Z,21.43
2022-08-04T04:13:03.571Z,21.48
2022-08-04T04:16:01.260Z,21.55
2022-08-04T04:18:53.731Z,21.63
2022-08-04T04:22:00.086Z,21.51
2022-08-04T04:24:45.538Z,21.75
2022-08-04T04:27:27.037Z,21.80
2022-08-04T04:30:05.262Z,21.89
2022-08-04T04:33:01.405Z,21.96
2022-08-04T04:35:39.384Z,21.99
2022-08-04T04:38:32.681Z,22.05
2022-08-04T04:41:12.195Z,22.11
2022-08-04T04:43:59.725Z,22.19
2022-08-04T04:46:40.220Z,22.24
2022-08-04T04:49:18.808Z,22.26
2022-08-04T04:51:57.174Z,21.93
2022-08-04T04:54:35.182Z,22.31
2022-08-04T04:57:11.599Z,22.36
2022-08-04T04:59:49.549Z,22.40
2022-08-04T05:02:45.039Z,22.48
2022-08-04T05:05:37.541Z,22.51
2022-08-04T05:08:44.778Z,22.55
2022-08-04T05:11:49.537Z,22.65
2022-08-04T05:14:36.109Z,22.68
2022-08-04T05:17:18.557Z,22.75
2022-08-04T05:19:57.520Z,22.82
2022-08-04T05:22:31.193Z,22.83
2022-08-04T05:25:06.620Z,22.90
2022-08-04T05:27:40.509Z,22.92
2022-08-04T05:30:13.249Z,22.96
2022-08-04T05:32:51.960Z,22.97
2022-08-04T05:35:53.988Z,22.91
2022-08-04T05:38:23.872Z,23.00
2022-08-04T05:40:53.553Z,23.08
2022-08-04T05:43:24.172Z,23.08
2022-08-04T05:45:58.020Z,23.10
2022-08-04T05:48:28.288Z,22.91
2022-08-04T05:51:01.068Z,23.17
2022-08-04T05:53:30.709Z,23.17
2022-08-04T05:56:02.694Z,23.24
2022-08-04T05:58:32.105Z,23.25
2022-08-04T06:01:03.003Z,23.28
2022-08-04T06:03:32.809Z,23.32
2022-08-04T06:06:03.304Z,23.30
2022-08-04T06:08:32.376Z,23.25
2022-08-04T06:11:06.542Z,23.44
2022-08-04T06:13:48.088Z,23.50
2022-08-04T06:16:30.311Z,23.34
2022-08-04T06:20:01.201Z,23.46
2022-08-04T06:21:53.673Z,23.14
2022-08-04T06:24:26.863Z,23.48
2022-08-04T06:26:57.037Z,23.37
2022-08-04T06:29:34.411Z,23.78
2022-08-04T06:32:31.526Z,23.80
2022-08-04T06:35:06.117Z,23.93
2022-08-04T06:37:42.311Z,23.96
2022-08-04T06:40:14.057Z,24.00
2022-08-04T06:43:02.126Z,23.86
2022-08-04T06:45:34.719Z,24.10
2022-08-04T06:48:06.572Z,24.06
2022-08-04T06:51:32.065Z,24.20
2022-08-04T06:53:27.379Z,24.23
2022-08-04T06:55:57.867Z,24.29
2022-08-04T06:58:27.420Z,24.32
2022-08-04T07:01:02.094Z,24.44
2022-08-04T07:03:33.402Z,24.49
2022-08-04T07:06:06.028Z,24.54
2022-08-04T07:08:44.803Z,24.58
2022-08-04T07:11:13.959Z,24.61
2022-08-04T07:13:45.409Z,24.49
2022-08-04T07:16:16.239Z,24.60
2022-08-04T07:18:46.584Z,24.76
2022-08-04T07:21:24.617Z,24.82
2022-08-04T07:23:53.797Z,24.83
2022-08-04T07:26:28.194Z,24.83
2022-08-04T07:28:57.860Z,24.94
2022-08-04T07:31:34.326Z,25.02
2022-08-04T07:34:16.838Z,25.04
2022-08-04T07:36:55.018Z,25.03
2022-08-04T07:39:27.935Z,25.14
2022-08-04T07:41:59.158Z,25.21
2022-08-04T07:44:31.099Z,25.27
2022-08-04T07:47:00.617Z,25.20
2022-08-04T07:49:55.274Z,25.25
2022-08-04T07:52:20.040Z,25.41
2022-08-04T07:54:49.557Z,25.20
2022-08-04T07:57:41.160Z,25.50
2022-08-04T08:00:10.485Z,25.55
2022-08-04T08:02:40.633Z,25.65
2022-08-04T08:05:14.429Z,25.67
2022-08-04T08:07:50.220Z,25.68
2022-08-04T08:10:21.002Z,25.76
2022-08-04T08:12:52.163Z,25.75
2022-08-04T08:15:21.868Z,25.89
2022-08-04T08:17:58.812Z,25.94
2022-08-04T08:20:31.587Z,25.66
2022-08-04T08:23:01.231Z,25.80
2022-08-04T08:25:31.053Z,26.05
2022-08-04T08:27:59.677Z,25.94
2022-08-04T08:30:31.651Z,25.90
2022-08-04T08:33:05.668Z,26.16
2022-08-04T08:35:52.076Z,26.19
2022-08-04T08:38:44.792Z,26.25
2022-08-04T08:41:53.116Z,26.35
2022-08-04T08:44:57.645Z,26.40
2022-08-04T08:48:05.157Z,26.46
2022-08-04T08:50:59.574Z,26.55
2022-08-04T08:53:55.963Z,26.67
2022-08-04T08:56:35.503Z,26.61
2022-08-04T08:59:34.846Z,26.77
2022-08-04T09:02:38.800Z,26.79
2022-08-04T09:05:23.124Z,26.75
2022-08-04T09:08:21.006Z,26.87
2022-08-04T09:10:53.523Z,26.78
2022-08-04T09:13:27.822Z,27.00
2022-08-04T09:16:07.806Z,27.06
2022-08-04T09:18:43.883Z,27.12
2022-08-04T09:21:19.096Z,27.17
2022-08-04T09:24:01.112Z,27.25
2022-08-04T09:26:36.081Z,27.29
2022-08-04T09:29:12.428Z,27.39
2022-08-04T09:32:07.060Z,27.42
2022-08-04T09:34:45.850Z,27.44
2022-08-04T09:37:26.537Z,27.13
2022-08-04T09:40:05.205Z,27.62
2022-08-04T09:42:42.461Z,27.54
2022-08-04T09:45:26.666Z,27.67
2022-08-04T09:48:14.258Z,27.75
2022-08-04T09:50:49.947Z,27.86
2022-08-04T09:53:32.741Z,27.95
2022-08-04T09:56:11.113Z,28.00
2022-08-04T09:58:52.093Z,28.04
2022-08-04T10:01:23.992Z,27.95
2022-08-04T10:03:56.906Z,28.21
2022-08-04T10:07:00.214Z,28.28
2022-08-04T10:09:58.529Z,28.34
2022-08-04T10:12:41.012Z,28.42
2022-08-04T10:15:15.373Z,28.48
2022-08-04T10:18:09.722Z,28.56
2022-08-04T10:20:57.390Z,28.32
2022-08-04T10:23:56.378Z,28.59
2022-08-04T10:26:38.231Z,28.66
2022-08-04T10:29:14.293Z,28.72
2022-08-04T10:31:48.815Z,28.80
2022-08-04T10:34:23.242Z,28.84
2022-08-04T10:36:58.248Z,28.86
2022-08-04T10:39:41.872Z,28.94
2022-08-04T10:42:23.658Z,29.00
2022-08-04T10:45:09.789Z,29.03
2022-08-04T10:47:53.149Z,29.08
2022-08-04T10:50:25.699Z,29.01
2022-08-04T10:53:04.046Z,28.88
2022-08-04T10:56:07.777Z,29.22
2022-08-04T10:58:48.532Z,29.30
2022-08-04T11:02:01.589Z,29.01
2022-08-04T11:04:26.743Z,29.30
2022-08-04T11:06:58.188Z,29.38
2022-08-04T11:09:27.389Z,29.39
2022-08-04T11:12:01.026Z,29.45
2022-08-04T11:14:37.381Z,29.45
2022-08-04T11:17:12.996Z,29.41
2022-08-04T11:19:53.313Z,29.45
2022-08-04T11:22:27.549Z,29.55
2022-08-04T11:25:09.655Z,29.49
2022-08-04T11:27:45.740Z,29.73
2022-08-04T11:30:17.959Z,29.60
2022-08-04T11:32:55.176Z,29.87
2022-08-04T11:35:32.510Z,29.93
2022-08-04T11:38:10.561Z,30.00
2022-08-04T11:40:55.878Z,30.08
2022-08-04T11:43:56.613Z,30.18
2022-08-04T11:46:38.356Z,30.10
2022-08-04T11:49:12.725Z,30.31
2022-08-04T11:51:43.204Z,30.41
2022-08-04T11:54:13.997Z,30.47
2022-08-04T11:56:42.716Z,30.28
2022-08-04T11:59:11.270Z,30.71
2022-08-04T12:01:56.549Z,30.84
2022-08-04T12:04:37.745Z,30.90
2022-08-04T12:07:36.397Z,30.83
2022-08-04T12:10:15.725Z,30.85
2022-08-04T12:13:10.917Z,30.92
2022-08-04T12:15:52.081Z,30.96
2022-08-04T12:18:24.907Z,31.10
2022-08-04T12:21:00.265Z,31.20
2022-08-04T12:23:35.267Z,31.30
2022-08-04T12:26:07.707Z,31.37
2022-08-04T12:29:08.083Z,31.42
2022-08-04T12:31:31.360Z,31.47
2022-08-04T12:34:06.847Z,31.54
2022-08-04T12:36:42.061Z,31.42
2022-08-04T12:39:18.058Z,31.78
2022-08-04T12:41:58.630Z,31.89
2022-08-04T12:44:37.509Z,31.91
2022-08-04T12:47:27.887Z,31.90
2022-08-04T12:50:03.974Z,31.94
2022-08-04T12:55:34.778Z,32.14
2022-08-04T12:58:04.277Z,32.20
2022-08-04T13:00:41.386Z,32.27
2022-08-04T13:03:14.317Z,32.36
2022-08-04T13:05:43.919Z,32.47
2022-08-04T13:08:15.780Z,32.57
2022-08-04T13:10:48.807Z,32.53
2022-08-04T13:13:20.078Z,32.59
2022-08-04T13:15:59.433Z,32.53
2022-08-04T13:18:32.261Z,32.48
2022-08-04T13:21:20.797Z,32.69
2022-08-04T13:24:10.143Z,32.81
2022-08-04T13:26:54.334Z,32.87
2022-08-04T13:30:00.228Z,33.01
2022-08-04T13:32:30.345Z,33.11
2022-08-04T13:35:01.616Z,33.12
2022-08-04T13:37:35.891Z,33.16
2022-08-04T13:40:08.054Z,33.23
2022-08-04T13:42:38.589Z,33.31
2022-08-04T13:45:10.096Z,33.46
2022-08-04T13:47:40.747Z,33.53
2022-08-04T13:50:19.752Z,33.55
2022-08-04T13:52:49.171Z,33.59
2022-08-04T13:55:24.815Z,33.66
2022-08-04T13:57:58.804Z,33.78
2022-08-04T14:00:30.742Z,33.90
2022-08-04T14:03:23.141Z,34.07
2022-08-04T14:06:11.929Z,34.33
2022-08-04T14:08:49.258Z,34.49
2022-08-04T14:12:10.505Z,34.43
2022-08-04T14:14:16.754Z,34.86
2022-08-04T14:17:03.231Z,34.97
2022-08-04T14:19:48.849Z,34.90
2022-08-04T14:22:34.871Z,34.98
2022-08-04T14:25:06.858Z,34.98
2022-08-04T14:27:46.812Z,35.30
2022-08-04T14:30:27.276Z,35.47
2022-08-04T14:32:57.841Z,35.58
2022-08-04T14:35:49.180Z,35.67
2022-08-04T14:38:16.043Z,35.57
2022-08-04T14:40:45.973Z,35.68
2022-08-04T14:43:19.672Z,35.74
2022-08-04T14:45:54.935Z,35.72
2022-08-04T14:48:25.469Z,35.74
2022-08-04T14:50:54.014Z,35.84
2022-08-04T14:53:26.574Z,35.94
2022-08-04T14:55:57.783Z,35.99
2022-08-04T14:58:34.129Z,35.97
2022-08-04T15:01:10.102Z,36.01
2022-08-04T15:03:48.324Z,36.20
2022-08-04T15:06:22.181Z,36.42
2022-08-04T15:08:52.380Z,36.58
2022-08-04T15:11:23.281Z,36.75
2022-08-04T15:13:54.632Z,36.67
2022-08-04T15:16:24.284Z,36.59
2022-08-04T15:18:54.746Z,36.63
2022-08-04T15:21:26.143Z,36.42
2022-08-04T15:23:55.046Z,36.30
2022-08-04T15:26:30.455Z,36.05
2022-08-04T15:29:07.409Z,35.52
2022-08-04T15:32:06.046Z,35.30
2022-08-04T15:34:28.514Z,34.97
2022-08-04T15:37:01.841Z,34.92
2022-08-04T15:39:37.341Z,34.92
2022-08-04T15:42:21.154Z,34.71
2022-08-04T15:45:07.182Z,34.50
2022-08-04T15:47:35.662Z,34.37
2022-08-04T15:50:08.710Z,34.32
2022-08-04T15:53:12.516Z,34.19
2022-08-04T15:55:44.089Z,33.84
2022-08-04T15:58:14.396Z,33.87
2022-08-04T16:01:17.299Z,33.81
2022-08-04T16:03:55.437Z,33.67
2022-08-04T16:06:45.568Z,33.59
2022-08-04T16:09:25.237Z,33.47
2022-08-04T16:12:57.476Z,33.28
2022-08-04T16:15:39.346Z,33.10
2022-08-04T16:18:25.297Z,32.86
2022-08-04T16:20:58.149Z,32.86
2022-08-04T16:23:54.920Z,32.78
2022-08-04T16:26:55.031Z,32.70
2022-08-04T16:29:47.022Z,32.55
2022-08-04T16:32:21.584Z,32.44
2022-08-04T16:34:56.391Z,32.35
2022-08-04T16:37:32.413Z,32.27
2022-08-04T16:40:33.667Z,32.14
2022-08-04T16:43:06.549Z,32.01
2022-08-04T16:45:50.241Z,31.93
2022-08-04T16:48:19.951Z,31.83
2022-08-04T16:50:54.406Z,31.73
2022-08-04T16:53:53.463Z,31.68
2022-08-04T16:56:18.976Z,31.58
2022-08-04T16:58:53.085Z,31.51
2022-08-04T17:01:33.444Z,31.43
2022-08-04T17:04:06.836Z,31.31
2022-08-04T17:06:36.314Z,31.10
2022-08-04T17:09:11.079Z,31.08
2022-08-04T17:11:40.199Z,30.88
2022-08-04T17:14:08.907Z,31.01
2022-08-04T17:16:40.318Z,30.96
2022-08-04T17:19:19.801Z,30.92
2022-08-04T17:21:57.617Z,30.84
2022-08-04T17:24:31.226Z,30.80
2022-08-04T17:27:00.076Z,30.72
2022-08-04T17:29:44.767Z,30.51
2022-08-04T17:32:19.899Z,30.52
2022-08-04T17:34:50.162Z,30.52
2022-08-04T17:37:52.616Z,30.46
2022-08-04T17:40:12.154Z,30.40
2022-08-04T17:42:41.676Z,30.34
2022-08-04T17:45:50.103Z,30.25
2022-08-04T17:48:02.829Z,30.16
2022-08-04T17:50:35.936Z,29.88
2022-08-04T17:53:11.110Z,30.04
2022-08-04T17:55:46.936Z,29.96
2022-08-04T17:58:20.522Z,29.88
2022-08-04T18:00:57.622Z,29.79
2022-08-04T18:03:39.127Z,29.61
2022-08-04T18:06:14.240Z,29.65
2022-08-04T18:08:50.191Z,29.60
2022-08-04T18:14:12.417Z,29.45
2022-08-04T18:16:47.217Z,29.39
2022-08-04T18:19:18.783Z,29.32
2022-08-04T18:21:59.378Z,29.24
2022-08-04T18:24:35.466Z,29.15
2022-08-04T18:27:23.877Z,29.03
2022-08-04T18:30:34.014Z,29.02
2022-08-04T18:33:16.824Z,28.81
2022-08-04T18:36:33.913Z,28.82
2022-08-04T18:38:23.729Z,28.70
2022-08-04T18:40:54.585Z,28.59
2022-08-04T18:43:28.311Z,28.50
2022-08-04T18:45:59.808Z,28.34
2022-08-04T18:48:36.336Z,28.32
2022-08-04T18:51:23.240Z,28.22
2022-08-04T18:53:55.342Z,28.10
2022-08-04T18:56:29.905Z,28.02
2022-08-04T18:59:03.958Z,27.91
2022-08-04T19:02:13.400Z,27.83
2022-08-04T19:04:32.760Z,27.70
2022-08-04T19:07:29.614Z,27.62
2022-08-04T19:09:58.245Z,27.51
2022-08-04T19:12:28.784Z,27.44
2022-08-04T19:15:08.708Z,27.36
2022-08-04T19:17:54.029Z,27.27
2022-08-04T19:20:27.092Z,27.16
2022-08-04T19:24:31.868Z,27.10
2022-08-04T19:28:36.596Z,26.93
2022-08-04T19:31:09.862Z,26.85
2022-08-04T19:33:59.211Z,26.78
2022-08-04T19:36:29.694Z,26.73
2022-08-04T19:39:02.223Z,26.66
2022-08-04T19:41:34.194Z,25.48
2022-08-04T19:44:31.282Z,25.53
2022-08-04T19:47:59.328Z,25.99
2022-08-04T19:50:03.872Z,26.09
2022-08-04T19:52:40.151Z,25.59
2022-08-04T19:55:36.643Z,25.97
2022-08-04T20:00:56.718Z,26.03
2022-08-04T20:04:08.961Z,26.21
2022-08-04T20:06:15.988Z,24.36
2022-08-04T20:08:52.082Z,23.78
2022-08-04T20:11:23.353Z,25.83
2022-08-04T20:13:54.481Z,25.51
2022-08-04T20:19:18.785Z,24.58
2022-08-04T20:22:52.610Z,25.80
2022-08-04T20:32:54.737Z,23.43
2022-08-04T20:36:06.677Z,25.48
2022-08-04T20:38:37.752Z,24.79
2022-08-04T20:43:56.288Z,24.84
2022-08-04T20:46:28.699Z,25.00
2022-08-04T20:48:58.637Z,25.22
2022-08-04T20:51:33.409Z,25.19
2022-08-04T20:54:16.080Z,24.54
2022-08-04T20:59:36.282Z,25.12
2022-08-04T21:02:05.279Z,25.14
2022-08-04T21:04:35.971Z,25.13
2022-08-04T21:07:09.694Z,24.70
2022-08-04T21:09:50.953Z,24.63
2022-08-04T21:12:27.362Z,25.04
2022-08-04T21:15:13.111Z,24.92
2022-08-04T21:17:57.530Z,24.96
2022-08-04T21:20:32.273Z,24.91
2022-08-04T21:23:03.712Z,24.87
2022-08-04T21:25:42.878Z,24.83
2022-08-04T21:28:12.718Z,24.79
2022-08-04T21:30:52.612Z,24.77
2022-08-04T21:33:23.318Z,24.51
2022-08-04T21:35:54.127Z,24.78
2022-08-04T21:38:25.192Z,24.83
2022-08-04T21:43:49.463Z,24.72
2022-08-04T21:46:18.641Z,25.01
2022-08-04T21:48:49.193Z,25.08
2022-08-04T21:51:58.941Z,25.14
2022-08-04T21:54:09.390Z,25.17
2022-08-04T21:56:39.694Z,25.11
2022-08-04T21:59:14.453Z,25.19
2022-08-04T22:04:32.812Z,24.77
2022-08-04T22:07:02.654Z,25.23
2022-08-04T22:09:37.790Z,25.23
2022-08-04T22:12:12.437Z,25.20
2022-08-04T22:14:41.731Z,25.06
2022-08-04T22:17:18.726Z,25.16
2022-08-04T22:19:55.248Z,25.22
2022-08-04T22:22:29.079Z,25.23
2022-08-04T22:25:01.955Z,24.88
2022-08-04T22:28:03.613Z,25.20
2022-08-04T22:30:37.117Z,25.15
2022-08-04T22:33:08.321Z,25.15
2022-08-04T22:35:43.967Z,25.13
2022-08-04T22:38:24.366Z,25.11
2022-08-04T22:40:59.417Z,25.04
2022-08-04T22:43:32.381Z,24.97
2022-08-04T22:46:01.797Z,24.91
2022-08-04T22:48:32.005Z,24.85
2022-08-04T22:51:01.430Z,24.86
2022-08-04T22:53:31.883Z,24.79
2022-08-04T22:56:10.291Z,24.72
2022-08-04T22:58:45.525Z,24.69
2022-08-04T23:01:20.690Z,24.63
2022-08-04T23:03:55.684Z,24.59
2022-08-04T23:06:28.617Z,24.51
2022-08-04T23:08:57.838Z,24.45
2022-08-04T23:11:34.424Z,24.40
2022-08-04T23:14:06.135Z,24.35
2022-08-04T23:16:40.656Z,24.32
2022-08-04T23:19:15.415Z,24.28
2022-08-04T23:21:47.845Z,24.04
2022-08-04T23:24:30.101Z,23.73
2022-08-04T23:26:58.833Z,24.16
2022-08-04T23:29:53.046Z,24.12
2022-08-04T23:32:20.362Z,24.10
2022-08-04T23:34:49.236Z,23.90
2022-08-04T23:37:18.041Z,24.07
2022-08-04T23:40:14.556Z,24.05
2022-08-04T23:42:35.410Z,23.98
2022-08-04T23:45:06.782Z,23.92
2022-08-04T23:48:16.755Z,23.83
2022-08-04T23:50:25.706Z,23.68
2022-08-04T23:52:54.278Z,23.34
2022-08-04T23:55:22.710Z,23.64
2022-08-04T23:58:06.242Z,23.56
